Time;durP1;ratioP1;P1;durP2;ratioP2;P2;SDS_P1;SDS_P2;PMS_P1;PMS_P2;Temp;Humidity;BMP_temperature;BMP_pressure;BME280_temperature;BME280_humidity;BME280_pressure;Samples;Min_cycle;Max_cycle;Signal;HPM_P1;HPM_P2
2023/09/12 00:01:32;;;;;;;14.40;12.90;;;21.50;99.90;;;;;;4917424;29;20235;-71
2023/09/12 00:03:58;;;;;;;15.30;12.40;;;21.50;99.90;;;;;;4916402;29;20651;-71
2023/09/12 00:06:24;;;;;;;17.23;11.50;;;21.40;99.90;;;;;;4917467;29;20423;-71
2023/09/12 00:08:51;;;;;;;15.73;11.50;;;21.40;99.90;;;;;;4917657;29;20541;-69
2023/09/12 00:11:16;;;;;;;13.10;11.70;;;21.40;99.90;;;;;;4917372;29;20199;-70
2023/09/12 00:13:42;;;;;;;14.33;11.83;;;21.40;99.90;;;;;;4917152;29;20442;-70
2023/09/12 00:16:11;;;;;;;14.20;11.33;;;21.40;99.90;;;;;;4917303;29;20208;-70
2023/09/12 00:18:38;;;;;;;13.27;11.47;;;21.40;99.90;;;;;;4917091;29;20610;-70
2023/09/12 00:21:03;;;;;;;11.93;10.70;;;21.30;99.90;;;;;;4917325;29;20520;-72
2023/09/12 00:23:29;;;;;;;13.43;11.23;;;21.30;99.90;;;;;;4917689;29;20568;-71
2023/09/12 00:25:56;;;;;;;17.83;12.57;;;21.20;99.90;;;;;;4917382;29;20176;-71
2023/09/12 00:28:22;;;;;;;13.67;10.80;;;21.20;99.90;;;;;;4917667;29;20452;-71
2023/09/12 00:30:48;;;;;;;12.23;10.30;;;21.30;99.90;;;;;;4917777;29;20421;-72
2023/09/12 00:33:13;;;;;;;12.47;11.20;;;21.20;99.90;;;;;;4917442;29;20218;-70
2023/09/12 00:35:39;;;;;;;15.27;11.37;;;21.20;99.90;;;;;;4917480;29;20434;-71
2023/09/12 00:38:06;;;;;;;11.80;9.57;;;21.20;99.90;;;;;;4917026;29;20202;-70
2023/09/12 00:40:32;;;;;;;11.30;10.20;;;21.20;99.90;;;;;;4916977;29;20540;-71
2023/09/12 00:42:58;;;;;;;16.57;10.97;;;21.20;99.90;;;;;;4916655;29;20454;-71
2023/09/12 00:45:24;;;;;;;11.90;10.20;;;21.10;99.90;;;;;;4916879;29;20596;-71
2023/09/12 00:47:51;;;;;;;14.40;9.73;;;21.20;99.90;;;;;;4917061;29;20469;-71
2023/09/12 00:50:18;;;;;;;13.67;9.50;;;21.20;99.90;;;;;;4916979;29;20185;-71
2023/09/12 00:52:44;;;;;;;12.30;9.57;;;21.10;99.90;;;;;;4916484;29;20476;-70
2023/09/12 00:55:11;;;;;;;12.70;10.57;;;21.10;99.90;;;;;;4916811;29;20780;-71
2023/09/12 00:57:37;;;;;;;12.00;10.17;;;21.10;99.90;;;;;;4916569;29;20464;-71
2023/09/12 01:00:12;;;;;;;11.17;9.97;;;21.10;99.90;;;;;;4917016;29;20453;-71
2023/09/12 01:02:45;;;;;;;15.10;10.20;;;21.10;99.90;;;;;;4916685;29;20213;-70
2023/09/12 01:05:14;;;;;;;10.40;9.03;;;21.00;99.90;;;;;;4916825;29;20427;-70
2023/09/12 01:07:39;;;;;;;12.27;9.87;;;21.00;99.90;;;;;;4916680;29;20516;-71
2023/09/12 01:10:06;;;;;;;12.07;10.53;;;21.00;99.90;;;;;;4916896;29;21147;-71
2023/09/12 01:12:32;;;;;;;12.77;10.40;;;21.00;99.90;;;;;;4916046;29;20222;-71
2023/09/12 01:14:57;;;;;;;11.63;9.07;;;21.00;99.90;;;;;;4916243;29;20514;-71
2023/09/12 01:17:24;;;;;;;13.50;9.83;;;21.00;99.90;;;;;;4916128;29;20187;-70
2023/09/12 01:19:51;;;;;;;12.20;9.20;;;21.00;99.90;;;;;;4916323;29;20554;-70
2023/09/12 01:22:45;;;;;;;10.70;9.03;;;21.00;99.90;;;;;;4916127;29;20827;-71
2023/09/12 01:25:22;;;;;;;10.53;8.57;;;21.00;99.90;;;;;;4916176;29;20414;-71
2023/09/12 01:27:52;;;;;;;10.80;9.70;;;21.00;99.90;;;;;;4916145;29;20448;-70
2023/09/12 01:30:20;;;;;;;10.43;9.17;;;20.90;99.90;;;;;;4916144;29;20816;-71
2023/09/12 01:32:47;;;;;;;10.60;9.47;;;20.90;99.90;;;;;;4915748;29;20876;-69
2023/09/12 01:35:13;;;;;;;10.47;9.47;;;20.90;99.90;;;;;;4916006;29;20424;-70
2023/09/12 01:37:38;;;;;;;13.27;9.93;;;20.90;99.90;;;;;;4908146;29;20455;-70
2023/09/12 01:40:04;;;;;;;10.93;9.90;;;20.90;99.90;;;;;;4915950;29;20194;-70
2023/09/12 01:42:36;;;;;;;10.63;9.53;;;20.80;99.90;;;;;;4915512;29;20264;-70
2023/09/12 01:45:04;;;;;;;16.17;9.67;;;20.80;99.90;;;;;;4915801;29;20451;-71
2023/09/12 01:47:30;;;;;;;10.00;8.53;;;20.80;99.90;;;;;;4916206;29;20463;-70
2023/09/12 01:49:58;;;;;;;16.90;10.10;;;20.80;99.90;;;;;;4916650;29;20947;-69
2023/09/12 01:52:26;;;;;;;11.47;9.77;;;20.80;99.90;;;;;;4915569;29;20507;-70
2023/09/12 01:54:53;;;;;;;14.40;9.40;;;20.80;99.90;;;;;;4915683;29;20451;-70
2023/09/12 01:57:22;;;;;;;9.33;8.33;;;20.80;99.90;;;;;;4915701;29;20420;-70
2023/09/12 01:59:49;;;;;;;14.57;10.63;;;20.70;99.90;;;;;;4915330;29;20472;-70
2023/09/12 02:02:18;;;;;;;10.07;9.07;;;20.70;99.90;;;;;;4915358;29;20948;-70
2023/09/12 02:05:08;;;;;;;10.23;9.23;;;20.70;99.90;;;;;;4915607;29;20791;-71
2023/09/12 02:07:39;;;;;;;12.20;10.03;;;20.70;99.90;;;;;;4915539;29;20486;-71
2023/09/12 02:10:05;;;;;;;9.83;8.90;;;20.60;99.90;;;;;;4915566;29;20556;-71
2023/09/12 02:12:32;;;;;;;11.07;9.97;;;20.60;99.90;;;;;;4915485;29;20443;-69
2023/09/12 02:14:57;;;;;;;11.43;9.50;;;20.60;99.90;;;;;;4915766;29;20428;-73
2023/09/12 02:17:23;;;;;;;10.50;8.80;;;20.60;99.90;;;;;;4915552;29;21064;-69
2023/09/12 02:19:49;;;;;;;9.83;8.73;;;20.50;99.90;;;;;;4915169;29;20556;-71
2023/09/12 02:22:14;;;;;;;13.07;9.80;;;20.50;99.90;;;;;;4915528;29;20207;-71
2023/09/12 02:24:40;;;;;;;10.63;9.33;;;20.60;99.90;;;;;;4915138;29;20268;-71
2023/09/12 02:27:06;;;;;;;10.47;9.37;;;20.60;99.90;;;;;;4920122;29;20201;-70
2023/09/12 02:29:34;;;;;;;10.07;9.10;;;20.50;99.90;;;;;;4921644;29;20193;-70
2023/09/12 02:32:00;;;;;;;10.93;9.60;;;20.50;99.90;;;;;;4921927;29;20236;-71
2023/09/12 02:34:26;;;;;;;11.07;9.97;;;20.50;99.90;;;;;;4921637;29;20897;-71
2023/09/12 02:36:51;;;;;;;15.60;11.07;;;20.50;99.90;;;;;;4905977;29;20187;-71
2023/09/12 02:39:17;;;;;;;12.03;10.17;;;20.60;99.90;;;;;;4921420;29;20907;-70
2023/09/12 02:41:43;;;;;;;12.00;9.07;;;20.60;99.90;;;;;;4921441;29;20188;-70
2023/09/12 02:44:08;;;;;;;11.20;10.07;;;20.50;99.90;;;;;;4921221;29;20230;-70
2023/09/12 02:46:34;;;;;;;13.20;10.60;;;20.50;99.90;;;;;;4921474;29;20193;-70
2023/09/12 02:49:00;;;;;;;11.70;10.40;;;20.50;99.90;;;;;;4921466;29;20178;-70
2023/09/12 02:51:26;;;;;;;18.70;11.77;;;20.60;99.90;;;;;;4921370;29;20247;-70
2023/09/12 02:53:51;;;;;;;13.83;10.27;;;20.60;99.90;;;;;;4921010;29;20217;-71
2023/09/12 02:56:17;;;;;;;11.90;10.70;;;20.60;99.90;;;;;;4922526;29;20976;-71
2023/09/12 02:58:46;;;;;;;12.97;11.70;;;20.60;99.90;;;;;;4921047;29;20218;-71
2023/09/12 03:01:19;;;;;;;11.63;10.43;;;20.60;99.90;;;;;;4921322;29;20185;-70
2023/09/12 03:03:48;;;;;;;15.23;10.57;;;20.50;99.90;;;;;;4921314;29;20944;-70
2023/09/12 03:06:15;;;;;;;13.13;11.83;;;20.50;99.90;;;;;;4922871;29;20420;-70
2023/09/12 03:08:41;;;;;;;12.50;11.20;;;20.50;99.90;;;;;;4923574;29;20808;-71
2023/09/12 03:11:07;;;;;;;11.90;10.80;;;20.40;99.90;;;;;;4923171;29;20430;-70
2023/09/12 03:13:34;;;;;;;11.37;10.27;;;20.40;99.90;;;;;;4921681;29;20446;-71
2023/09/12 03:16:00;;;;;;;12.63;11.33;;;20.30;99.90;;;;;;4921338;29;20428;-70
2023/09/12 03:18:26;;;;;;;13.33;10.83;;;20.30;99.90;;;;;;4921453;29;20516;-69
2023/09/12 03:20:52;;;;;;;15.13;11.60;;;20.20;99.90;;;;;;4921228;29;20516;-70
2023/09/12 03:23:19;;;;;;;12.53;11.23;;;20.10;99.90;;;;;;4920847;29;20199;-69
2023/09/12 03:25:44;;;;;;;13.47;12.13;;;20.10;99.90;;;;;;4921072;29;20194;-70
2023/09/12 03:28:10;;;;;;;11.87;10.67;;;20.10;99.90;;;;;;4921100;29;20795;-72
2023/09/12 03:30:37;;;;;;;13.23;11.53;;;20.10;99.90;;;;;;4919656;29;20211;-70
2023/09/12 03:33:03;;;;;;;14.27;11.27;;;20.00;99.90;;;;;;4920845;29;20579;-71
2023/09/12 03:35:31;;;;;;;14.07;10.50;;;20.00;99.90;;;;;;4920844;29;20427;-71
2023/09/12 03:37:56;;;;;;;12.77;10.60;;;20.00;99.90;;;;;;4919339;29;20516;-70
2023/09/12 03:40:22;;;;;;;11.53;10.20;;;20.00;99.90;;;;;;4918093;29;20511;-71
2023/09/12 03:42:47;;;;;;;11.37;10.37;;;20.00;99.90;;;;;;4917365;29;20257;-70
2023/09/12 03:45:13;;;;;;;13.80;11.17;;;20.00;99.90;;;;;;4917969;29;20219;-71
2023/09/12 03:47:39;;;;;;;11.77;10.60;;;19.90;99.90;;;;;;4917845;29;20187;-71
2023/09/12 03:50:05;;;;;;;11.63;10.43;;;19.90;99.90;;;;;;4917616;29;20213;-71
2023/09/12 03:52:30;;;;;;;13.03;11.77;;;19.90;99.90;;;;;;4918059;29;20214;-70
2023/09/12 03:54:56;;;;;;;12.93;11.63;;;19.90;99.90;;;;;;4918478;29;20845;-70
2023/09/12 03:57:22;;;;;;;12.80;11.50;;;19.90;99.90;;;;;;4919130;29;20192;-71
2023/09/12 03:59:48;;;;;;;12.93;11.60;;;19.90;99.90;;;;;;4917616;29;20669;-70
2023/09/12 04:02:13;;;;;;;13.97;11.23;;;19.90;99.90;;;;;;4917516;29;20518;-70
2023/09/12 04:04:39;;;;;;;14.70;12.80;;;19.90;99.90;;;;;;4917457;29;20203;-70
2023/09/12 04:07:05;;;;;;;12.80;10.93;;;19.80;99.90;;;;;;4917687;29;20220;-71
2023/09/12 04:09:31;;;;;;;14.13;11.90;;;19.80;99.90;;;;;;4917805;29;20280;-71
2023/09/12 04:11:57;;;;;;;12.53;11.33;;;19.80;99.90;;;;;;4917323;29;20487;-69
2023/09/12 04:14:23;;;;;;;13.00;11.70;;;19.90;99.90;;;;;;4917391;29;20428;-70
2023/09/12 04:16:48;;;;;;;11.87;10.67;;;19.90;99.90;;;;;;4917347;29;20186;-71
2023/09/12 04:19:14;;;;;;;11.90;10.80;;;19.90;99.90;;;;;;4917671;29;20206;-70
2023/09/12 04:21:40;;;;;;;12.80;11.60;;;19.80;99.90;;;;;;4917382;29;20184;-70
2023/09/12 04:24:07;;;;;;;13.33;10.47;;;19.80;99.90;;;;;;4917712;29;20225;-70
2023/09/12 04:26:33;;;;;;;16.00;12.30;;;19.80;99.90;;;;;;4917771;29;20430;-68
2023/09/12 04:28:58;;;;;;;13.27;11.37;;;19.90;99.90;;;;;;4917287;29;20426;-71
2023/09/12 04:31:24;;;;;;;13.93;10.70;;;19.90;99.90;;;;;;4917246;29;20648;-69
2023/09/12 04:33:53;;;;;;;12.53;11.33;;;19.90;99.90;;;;;;4917097;29;20427;-71
2023/09/12 04:36:19;;;;;;;11.97;10.53;;;19.80;99.90;;;;;;4917628;29;20476;-71
2023/09/12 04:38:45;;;;;;;12.63;11.37;;;19.80;99.90;;;;;;4917652;29;20464;-71
2023/09/12 04:41:16;;;;;;;12.93;10.70;;;19.80;99.90;;;;;;4917949;29;20451;-71
2023/09/12 04:43:45;;;;;;;11.07;9.97;;;19.90;99.90;;;;;;4939164;23;20226;-66
2023/09/12 04:46:11;;;;;;;11.90;10.70;;;19.80;99.90;;;;;;4935863;29;20827;-66
2023/09/12 04:48:37;;;;;;;11.03;9.93;;;19.90;99.90;;;;;;4935708;29;20489;-67
2023/09/12 04:51:03;;;;;;;11.53;10.43;;;19.90;99.90;;;;;;4936131;29;20429;-67
2023/09/12 04:53:34;;;;;;;11.13;10.03;;;19.90;99.90;;;;;;4930168;29;20472;-68
2023/09/12 04:56:00;;;;;;;13.50;11.53;;;20.00;99.90;;;;;;4917167;29;20593;-66
2023/09/12 04:58:26;;;;;;;11.50;10.30;;;20.00;99.90;;;;;;4916864;29;20564;-66
2023/09/12 05:00:51;;;;;;;11.40;10.30;;;20.00;99.90;;;;;;4916309;29;20459;-67
2023/09/12 05:03:17;;;;;;;11.73;10.63;;;20.00;99.90;;;;;;4916335;29;20198;-67
2023/09/12 05:05:46;;;;;;;11.17;10.07;;;20.00;99.90;;;;;;4916664;29;20664;-67
2023/09/12 05:08:12;;;;;;;11.57;10.47;;;20.10;99.90;;;;;;4916587;29;20197;-67
2023/09/12 05:10:38;;;;;;;12.17;10.97;;;20.10;99.90;;;;;;4916196;29;20425;-67
2023/09/12 05:13:05;;;;;;;14.20;10.37;;;20.20;99.90;;;;;;4908870;29;20201;-67
2023/09/12 05:15:30;;;;;;;12.97;11.30;;;20.20;99.90;;;;;;4916192;29;20429;-66
2023/09/12 05:17:56;;;;;;;13.03;10.77;;;20.30;99.90;;;;;;4915928;29;20458;-68
2023/09/12 05:20:21;;;;;;;11.23;10.10;;;20.40;99.90;;;;;;4916279;29;20447;-67
2023/09/12 05:22:47;;;;;;;11.23;10.17;;;20.40;99.90;;;;;;4916087;29;20187;-68
2023/09/12 05:25:13;;;;;;;13.40;12.00;;;20.50;99.90;;;;;;4916022;29;20179;-67
2023/09/12 05:27:38;;;;;;;11.50;9.70;;;20.60;99.90;;;;;;4915926;29;20559;-66
2023/09/12 05:30:05;;;;;;;13.87;12.47;;;20.60;99.90;;;;;;4915939;29;20169;-75
2023/09/12 05:32:31;;;;;;;11.07;9.97;;;20.70;99.90;;;;;;4916293;29;20211;-72
2023/09/12 05:34:56;;;;;;;12.10;10.73;;;20.80;99.90;;;;;;4919359;29;20836;-69
2023/09/12 05:37:22;;;;;;;11.77;10.50;;;20.90;99.90;;;;;;4918566;29;20427;-70
2023/09/12 05:39:48;;;;;;;11.10;9.70;;;20.90;99.90;;;;;;4915971;29;20210;-71
2023/09/12 05:42:20;;;;;;;14.93;10.13;;;21.00;99.90;;;;;;4916267;29;20192;-72
2023/09/12 05:44:50;;;;;;;14.00;10.30;;;21.10;99.90;;;;;;4915671;29;20635;-71
2023/09/12 05:47:16;;;;;;;14.50;10.40;;;21.20;99.90;;;;;;4915895;29;20485;-71
2023/09/12 05:49:41;;;;;;;12.13;9.70;;;21.30;99.90;;;;;;4915732;29;20427;-71
2023/09/12 05:52:07;;;;;;;10.27;9.27;;;21.30;99.90;;;;;;4915661;29;20209;-71
2023/09/12 05:54:33;;;;;;;13.13;10.27;;;21.50;99.90;;;;;;4915558;29;20202;-71
2023/09/12 05:56:59;;;;;;;14.47;11.13;;;21.60;99.90;;;;;;4915687;29;20684;-71
2023/09/12 05:59:24;;;;;;;12.43;9.67;;;21.70;99.90;;;;;;4915391;29;20211;-71
2023/09/12 06:01:51;;;;;;;11.30;10.17;;;21.80;99.90;;;;;;4914727;29;20207;-72
2023/09/12 06:04:16;;;;;;;11.57;8.83;;;22.10;99.90;;;;;;4916152;29;20201;-67
2023/09/12 06:06:42;;;;;;;10.57;9.50;;;22.50;99.90;;;;;;4915534;29;20426;-69
2023/09/12 06:09:08;;;;;;;10.40;9.30;;;22.80;99.90;;;;;;4915345;29;20173;-66
2023/09/12 06:11:34;;;;;;;13.20;10.10;;;23.20;99.90;;;;;;4915590;29;20176;-68
2023/09/12 06:14:00;;;;;;;15.13;10.83;;;23.70;99.90;;;;;;4913890;29;20440;-66
2023/09/12 06:16:26;;;;;;;13.83;10.63;;;24.10;99.90;;;;;;4902232;29;20204;-66
2023/09/12 06:18:53;;;;;;;10.63;9.53;;;24.60;99.90;;;;;;4910142;29;20211;-67
2023/09/12 06:21:21;;;;;;;13.50;9.70;;;25.10;99.90;;;;;;4915340;29;20552;-68
2023/09/12 06:23:47;;;;;;;11.57;9.97;;;25.20;99.90;;;;;;4913596;29;20479;-68
2023/09/12 06:26:13;;;;;;;16.17;14.30;;;25.40;99.90;;;;;;4915049;29;20423;-67
2023/09/12 06:28:39;;;;;;;16.20;12.77;;;25.50;99.90;;;;;;4915093;29;20415;-68
2023/09/12 06:31:09;;;;;;;12.30;9.10;;;25.70;99.90;;;;;;4914443;29;20559;-68
2023/09/12 06:33:35;;;;;;;10.47;8.67;;;25.90;99.90;;;;;;4911342;29;20449;-66
2023/09/12 06:36:00;;;;;;;12.83;10.03;;;25.80;99.90;;;;;;4915073;29;20506;-67
2023/09/12 06:38:26;;;;;;;12.30;9.00;;;25.70;99.90;;;;;;4915100;29;20647;-67
2023/09/12 06:40:52;;;;;;;9.73;8.67;;;26.20;99.90;;;;;;4914884;29;20203;-67
2023/09/12 06:43:17;;;;;;;12.90;10.23;;;26.30;99.90;;;;;;4914865;29;20298;-68
2023/09/12 06:45:43;;;;;;;15.90;9.33;;;26.20;99.90;;;;;;4915133;29;20262;-67
2023/09/12 06:48:09;;;;;;;15.47;7.97;;;26.30;99.90;;;;;;4914177;29;20565;-67
2023/09/12 06:50:37;;;;;;;14.60;8.67;;;26.70;99.90;;;;;;4911284;29;20230;-66
2023/09/12 06:53:04;;;;;;;10.07;8.87;;;26.90;99.90;;;;;;4914897;29;20266;-69
2023/09/12 06:55:30;;;;;;;10.10;7.87;;;27.20;99.90;;;;;;4915044;29;20462;-67
2023/09/12 06:57:55;;;;;;;9.00;8.10;;;27.40;99.90;;;;;;4914907;29;20519;-67
2023/09/12 07:00:21;;;;;;;10.47;8.73;;;27.40;99.90;;;;;;4915384;29;20424;-67
2023/09/12 07:02:46;;;;;;;10.70;7.60;;;27.60;99.90;;;;;;4914948;29;20184;-67
2023/09/12 07:05:12;;;;;;;8.33;7.50;;;27.70;99.90;;;;;;4915046;29;20172;-68
2023/09/12 07:07:37;;;;;;;14.07;7.33;;;28.10;99.90;;;;;;4915195;29;20178;-68
2023/09/12 07:10:04;;;;;;;8.30;7.30;;;28.20;99.90;;;;;;4914923;29;20210;-67
2023/09/12 07:12:29;;;;;;;11.87;7.97;;;28.70;99.90;;;;;;4916445;29;20540;-67
2023/09/12 07:14:55;;;;;;;9.73;6.80;;;28.60;99.90;;;;;;4918342;29;20450;-67
2023/09/12 07:17:21;;;;;;;11.87;7.80;;;28.30;99.90;;;;;;4919152;29;20171;-68
2023/09/12 07:19:47;;;;;;;7.47;6.77;;;28.00;99.90;;;;;;4918379;29;20207;-67
2023/09/12 07:22:13;;;;;;;9.47;6.83;;;28.20;99.90;;;;;;4918260;29;20164;-67
2023/09/12 07:24:38;;;;;;;9.93;7.47;;;28.50;99.90;;;;;;4914642;29;20239;-67
2023/09/12 07:27:04;;;;;;;8.10;6.70;;;28.50;99.90;;;;;;4918472;29;20584;-68
2023/09/12 07:29:31;;;;;;;6.93;5.77;;;28.70;99.90;;;;;;4918407;29;20176;-67
2023/09/12 07:31:56;;;;;;;14.63;9.50;;;28.50;99.90;;;;;;4918519;29;20428;-68
2023/09/12 07:34:24;;;;;;;17.40;13.37;;;28.60;99.90;;;;;;4918170;29;20435;-67
2023/09/12 07:36:51;;;;;;;22.07;19.63;;;29.30;99.90;;;;;;4918472;29;20175;-67
2023/09/12 07:39:17;;;;;;;8.77;6.17;;;29.40;99.70;;;;;;4917918;29;20514;-67
2023/09/12 07:41:43;;;;;;;9.33;6.10;;;29.60;99.10;;;;;;4918000;29;20950;-67
2023/09/12 07:44:11;;;;;;;9.73;6.00;;;29.40;99.50;;;;;;4902442;29;20598;-67
2023/09/12 07:46:40;;;;;;;10.23;6.00;;;29.00;99.70;;;;;;4918221;29;20183;-68
2023/09/12 07:49:05;;;;;;;10.13;6.60;;;29.10;99.90;;;;;;4917956;29;20412;-67
2023/09/12 07:51:31;;;;;;;10.10;6.50;;;30.00;99.40;;;;;;4917868;29;20416;-67
2023/09/12 07:53:57;;;;;;;9.80;6.10;;;30.50;97.60;;;;;;4917520;29;20232;-66
2023/09/12 07:56:23;;;;;;;10.40;5.70;;;30.90;96.80;;;;;;4918057;29;20606;-66
2023/09/12 07:58:49;;;;;;;9.20;5.40;;;30.50;98.10;;;;;;4917536;29;20546;-66
2023/09/12 08:01:15;;;;;;;11.50;6.73;;;30.30;98.50;;;;;;4917826;29;20172;-65
2023/09/12 08:03:42;;;;;;;12.70;9.70;;;30.10;97.10;;;;;;4917493;29;20439;-68
2023/09/12 08:06:08;;;;;;;6.90;6.20;;;29.60;98.60;;;;;;4917575;29;20182;-65
2023/09/12 08:08:34;;;;;;;16.10;9.73;;;30.00;98.30;;;;;;4917388;29;20415;-65
2023/09/12 08:11:00;;;;;;;10.23;5.70;;;30.60;97.40;;;;;;4917496;29;20258;-66
2023/09/12 08:13:27;;;;;;;7.30;5.47;;;30.40;97.60;;;;;;4917339;29;20499;-66
2023/09/12 08:15:53;;;;;;;9.37;4.87;;;30.70;97.50;;;;;;4917623;29;20829;-66
2023/09/12 08:18:19;;;;;;;10.93;9.93;;;29.70;99.10;;;;;;4917324;29;20493;-66
2023/09/12 08:20:44;;;;;;;33.90;30.63;;;30.50;97.80;;;;;;4917506;29;20260;-66
2023/09/12 08:23:10;;;;;;;15.07;6.47;;;30.40;98.00;;;;;;4912465;29;20203;-66
2023/09/12 08:25:36;;;;;;;29.93;27.13;;;30.40;98.00;;;;;;4916778;29;20207;-67
2023/09/12 08:28:01;;;;;;;10.00;5.80;;;30.50;97.70;;;;;;4917283;29;20242;-67
2023/09/12 08:30:29;;;;;;;9.70;7.50;;;30.80;97.20;;;;;;4917205;29;20226;-66
2023/09/12 08:32:55;;;;;;;14.00;6.80;;;29.80;99.30;;;;;;4917105;29;20203;-66
2023/09/12 08:35:20;;;;;;;8.40;6.53;;;30.60;97.40;;;;;;4917077;29;20447;-66
2023/09/12 08:37:46;;;;;;;12.77;7.80;;;30.70;97.70;;;;;;4916927;29;20451;-66
2023/09/12 08:40:12;;;;;;;9.47;7.23;;;30.70;97.60;;;;;;4917112;29;20176;-67
2023/09/12 08:42:45;;;;;;;10.57;6.50;;;31.00;96.60;;;;;;4916942;29;20176;-67
2023/09/12 08:45:18;;;;;;;11.70;5.50;;;31.40;96.20;;;;;;4916831;29;20199;-66
2023/09/12 08:47:49;;;;;;;12.87;6.23;;;31.20;96.40;;;;;;4917122;29;20424;-67
2023/09/12 08:50:19;;;;;;;8.43;4.60;;;31.10;95.60;;;;;;4916946;29;20447;-67
2023/09/12 08:52:46;;;;;;;7.60;6.20;;;31.90;94.70;;;;;;4916938;29;20416;-66
2023/09/12 08:55:12;;;;;;;9.53;5.97;;;31.80;94.20;;;;;;4916953;29;20459;-67
2023/09/12 08:57:40;;;;;;;9.20;5.50;;;31.60;94.70;;;;;;4916888;29;20423;-67
2023/09/12 09:00:08;;;;;;;8.97;6.10;;;31.90;94.10;;;;;;4914359;29;20271;-67
2023/09/12 09:02:35;;;;;;;7.53;5.43;;;31.90;93.90;;;;;;4917228;29;20411;-66
2023/09/12 09:05:04;;;;;;;11.43;4.90;;;32.00;94.00;;;;;;4916497;29;20454;-67
2023/09/12 09:07:34;;;;;;;9.80;5.50;;;31.40;94.30;;;;;;4916634;29;20451;-67
2023/09/12 09:10:06;;;;;;;9.10;5.37;;;31.60;94.20;;;;;;4916512;29;20416;-67
2023/09/12 09:12:32;;;;;;;8.27;5.03;;;31.30;95.20;;;;;;4916503;29;20852;-66
2023/09/12 09:14:58;;;;;;;11.27;4.60;;;31.40;94.80;;;;;;4916190;29;20850;-67
2023/09/12 09:17:24;;;;;;;7.60;5.13;;;31.20;96.00;;;;;;4916535;29;20455;-66
2023/09/12 09:19:49;;;;;;;8.13;5.60;;;32.30;93.90;;;;;;4916400;29;20665;-66
2023/09/12 09:22:16;;;;;;;12.83;6.37;;;31.70;94.70;;;;;;4915748;29;20203;-66
2023/09/12 09:24:41;;;;;;;7.60;5.30;;;30.40;96.30;;;;;;4904393;29;20242;-65
2023/09/12 09:27:07;;;;;;;9.47;5.80;;;30.60;96.40;;;;;;4916373;29;20411;-65
2023/09/12 09:29:46;;;;;;;12.33;5.40;;;30.50;97.00;;;;;;4916080;29;20174;-66
2023/09/12 09:32:18;;;;;;;8.43;5.30;;;31.50;96.40;;;;;;4916263;29;20187;-67
2023/09/12 09:34:44;;;;;;;7.57;5.70;;;32.20;95.30;;;;;;4916079;29;20439;-66
2023/09/12 09:37:10;;;;;;;9.97;5.57;;;31.10;96.70;;;;;;4916349;29;20420;-66
2023/09/12 09:39:35;;;;;;;13.47;6.40;;;30.70;97.70;;;;;;4915911;29;20689;-65
2023/09/12 09:42:01;;;;;;;7.93;5.60;;;30.80;98.40;;;;;;4915778;29;20194;-67
2023/09/12 09:44:28;;;;;;;7.60;6.37;;;30.90;98.50;;;;;;4916197;29;20214;-66
2023/09/12 09:46:57;;;;;;;7.90;5.60;;;31.50;98.10;;;;;;4916344;29;20180;-66
2023/09/12 09:49:23;;;;;;;9.03;6.70;;;31.30;98.00;;;;;;4916118;29;20431;-66
2023/09/12 09:51:49;;;;;;;7.30;6.63;;;31.10;98.60;;;;;;4916054;29;20420;-66
2023/09/12 09:54:15;;;;;;;8.50;7.57;;;30.70;99.30;;;;;;4915925;29;20204;-66
2023/09/12 09:56:54;;;;;;;14.53;6.50;;;30.70;99.40;;;;;;4915923;29;20214;-67
2023/09/12 09:59:27;;;;;;;9.83;7.90;;;30.50;99.90;;;;;;4915628;29;20514;-67
2023/09/12 10:01:57;;;;;;;11.50;8.00;;;29.40;99.90;;;;;;4915659;29;20497;-65
2023/09/12 10:04:26;;;;;;;8.80;7.87;;;28.40;99.90;;;;;;4915700;29;20447;-66
2023/09/12 10:06:55;;;;;;;13.77;8.13;;;28.30;99.90;;;;;;4915812;29;20717;-66
2023/09/12 10:09:25;;;;;;;10.47;8.37;;;28.40;99.90;;;;;;4915794;29;20423;-67
2023/09/12 10:11:52;;;;;;;38.53;31.00;;;28.30;99.90;;;;;;4912186;29;20424;-66
2023/09/12 10:14:20;;;;;;;12.87;10.30;;;28.40;99.90;;;;;;4905955;29;20442;-67
2023/09/12 10:16:51;;;;;;;13.57;10.33;;;28.90;99.90;;;;;;4915054;29;20420;-67
2023/09/12 10:19:29;;;;;;;17.00;9.70;;;28.90;99.90;;;;;;4915604;29;20451;-66
2023/09/12 10:22:09;;;;;;;15.90;8.63;;;28.60;99.90;;;;;;4908512;29;20425;-66
2023/09/12 10:24:36;;;;;;;33.10;24.43;;;28.60;99.90;;;;;;4902388;29;20770;-66
2023/09/12 10:27:03;;;;;;;20.83;10.70;;;28.60;99.90;;;;;;4915528;29;20475;-67
2023/09/12 10:29:30;;;;;;;17.50;12.63;;;28.90;99.90;;;;;;4912613;29;20420;-67
2023/09/12 10:31:56;;;;;;;16.10;10.10;;;29.00;99.90;;;;;;4915260;29;20499;-67
2023/09/12 10:34:25;;;;;;;11.93;6.87;;;28.50;99.90;;;;;;4914963;29;20938;-67
2023/09/12 10:36:51;;;;;;;14.77;8.60;;;28.50;99.90;;;;;;4915407;29;20219;-66
2023/09/12 10:39:19;;;;;;;18.90;7.77;;;28.60;99.90;;;;;;4912818;29;20558;-67
2023/09/12 10:41:46;;;;;;;12.10;6.90;;;28.50;99.90;;;;;;4915341;29;20408;-66
2023/09/12 10:44:16;;;;;;;12.63;9.47;;;28.30;99.90;;;;;;4938369;23;20843;-68
2023/09/12 10:46:44;;;;;;;11.67;8.73;;;28.60;99.90;;;;;;4921123;29;20462;-69
2023/09/12 10:49:11;;;;;;;11.80;7.37;;;28.60;99.90;;;;;;4934604;29;20426;-70
2023/09/12 10:51:47;;;;;;;11.67;7.50;;;28.40;99.90;;;;;;4936081;29;20419;-70
2023/09/12 10:54:15;;;;;;;10.10;6.90;;;28.30;99.90;;;;;;4932506;29;20538;-70
2023/09/12 10:56:41;;;;;;;19.50;8.70;;;28.20;99.90;;;;;;4916835;29;20510;-69
2023/09/12 10:59:07;;;;;;;10.47;7.60;;;28.50;99.90;;;;;;4916666;29;20944;-70
2023/09/12 11:01:46;;;;;;;18.70;7.70;;;28.70;99.90;;;;;;4917109;29;20175;-71
2023/09/12 11:04:20;;;;;;;9.30;6.90;;;28.80;99.90;;;;;;4916595;29;20556;-70
2023/09/12 11:06:47;;;;;;;13.23;7.53;;;28.50;99.90;;;;;;4916809;29;20501;-70
2023/09/12 11:09:22;;;;;;;13.87;12.10;;;28.60;99.90;;;;;;4916490;29;20415;-69
2023/09/12 11:11:53;;;;;;;15.83;8.53;;;28.80;99.90;;;;;;4916423;29;20423;-71
2023/09/12 11:14:19;;;;;;;13.53;10.90;;;28.90;99.90;;;;;;4915586;29;20546;-70
2023/09/12 11:17:07;;;;;;;11.70;8.63;;;29.00;99.90;;;;;;4916589;29;20960;-69
2023/09/12 11:19:52;;;;;;;19.40;10.87;;;28.80;99.90;;;;;;4916225;29;20199;-72
2023/09/12 11:22:30;;;;;;;12.33;9.83;;;28.80;99.90;;;;;;4915435;29;20768;-70
2023/09/12 11:24:57;;;;;;;13.00;10.17;;;29.00;99.90;;;;;;4905862;29;20431;-70
2023/09/12 11:28:03;;;;;;;11.30;7.63;;;29.30;99.90;;;;;;4916384;29;20411;-70
2023/09/12 11:30:31;;;;;;;8.07;6.57;;;29.10;99.90;;;;;;4916010;29;20509;-70
2023/09/12 11:32:58;;;;;;;12.53;9.93;;;29.20;99.90;;;;;;4915988;29;20454;-69
2023/09/12 11:35:28;;;;;;;10.83;8.33;;;29.00;99.90;;;;;;4916029;29;20463;-70
2023/09/12 11:37:59;;;;;;;12.13;9.90;;;29.20;99.90;;;;;;4915986;29;20483;-69
2023/09/12 11:40:34;;;;;;;9.00;6.93;;;29.30;99.90;;;;;;4908758;29;20790;-70
2023/09/12 11:42:59;;;;;;;13.20;9.20;;;29.30;99.90;;;;;;4915830;29;20459;-70
2023/09/12 11:45:25;;;;;;;13.90;10.83;;;29.20;99.90;;;;;;4916096;29;20455;-69
2023/09/12 11:47:51;;;;;;;16.30;11.67;;;29.00;99.90;;;;;;4915517;29;20419;-70
2023/09/12 11:50:30;;;;;;;12.47;9.33;;;29.10;99.90;;;;;;4915867;29;20673;-70
2023/09/12 11:53:11;;;;;;;16.50;14.40;;;29.30;99.90;;;;;;4915731;29;20215;-70
2023/09/12 11:55:45;;;;;;;10.13;5.50;;;29.00;99.90;;;;;;4915650;29;20443;-69
2023/09/12 11:58:13;;;;;;;13.77;10.63;;;28.90;99.90;;;;;;4915474;29;20478;-70
2023/09/12 12:00:46;;;;;;;8.10;6.50;;;28.80;99.90;;;;;;4915297;29;20423;-70
2023/09/12 12:03:13;;;;;;;9.70;7.80;;;28.80;99.90;;;;;;4915668;29;20910;-70
2023/09/12 12:05:40;;;;;;;19.67;9.47;;;28.90;99.90;;;;;;4915980;29;20439;-70
2023/09/12 12:08:07;;;;;;;11.57;10.37;;;28.70;99.90;;;;;;4915860;29;20506;-70
2023/09/12 12:10:33;;;;;;;10.40;5.73;;;28.80;99.90;;;;;;4916337;29;20416;-69
2023/09/12 12:12:59;;;;;;;8.30;5.70;;;28.80;99.90;;;;;;4915621;29;20997;-70
2023/09/12 12:15:27;;;;;;;13.13;6.10;;;28.90;99.90;;;;;;4908860;29;20832;-69
2023/09/12 12:17:55;;;;;;;9.70;8.50;;;28.90;99.90;;;;;;4912052;29;20179;-70
2023/09/12 12:20:21;;;;;;;6.93;6.33;;;29.00;99.90;;;;;;4913639;29;20494;-69
2023/09/12 12:22:47;;;;;;;5.90;5.23;;;29.00;99.90;;;;;;4910960;29;20432;-69
2023/09/12 12:25:14;;;;;;;9.73;6.90;;;29.10;99.90;;;;;;4906386;29;20447;-69
2023/09/12 12:27:41;;;;;;;13.73;12.13;;;28.80;99.90;;;;;;4915814;29;20412;-69
2023/09/12 12:30:11;;;;;;;14.57;12.27;;;29.00;99.90;;;;;;4915600;29;20419;-69
2023/09/12 12:32:46;;;;;;;10.30;8.57;;;29.10;99.90;;;;;;4915322;29;21028;-69
2023/09/12 12:35:18;;;;;;;27.33;24.17;;;29.10;99.90;;;;;;4915135;29;20481;-69
2023/09/12 12:37:44;;;;;;;9.17;8.23;;;29.20;99.90;;;;;;4915594;29;20415;-70